createdAt,value
2023-01-26T00:01:52.256Z,14.48
2023-01-26T00:04:20.217Z,18.80
2023-01-26T00:06:48.171Z,21.45
2023-01-26T00:09:16.265Z,12.27
2023-01-26T00:11:44.166Z,17.38
2023-01-26T00:14:12.216Z,14.75
2023-01-26T00:16:41.624Z,18.42
2023-01-26T00:19:09.520Z,20.45
2023-01-26T00:21:37.489Z,15.93
2023-01-26T00:24:05.679Z,16.08
2023-01-26T00:26:33.989Z,15.98
2023-01-26T00:29:02.205Z,19.48
2023-01-26T00:31:30.446Z,19.40
2023-01-26T00:34:02.075Z,16.30
2023-01-26T00:36:30.046Z,16.08
2023-01-26T00:38:58.082Z,15.10
2023-01-26T00:41:43.521Z,16.45
2023-01-26T00:44:11.413Z,17.10
2023-01-26T00:46:39.483Z,17.33
2023-01-26T00:49:09.671Z,19.02
2023-01-26T00:51:37.597Z,14.48
2023-01-26T00:54:05.544Z,18.35
2023-01-26T00:56:33.537Z,23.58
2023-01-26T00:59:02.890Z,20.73
2023-01-26T01:01:30.891Z,21.50
2023-01-26T01:03:58.933Z,16.42
2023-01-26T01:06:28.951Z,13.00
2023-01-26T01:08:56.904Z,23.05
2023-01-26T01:11:24.914Z,25.42
2023-01-26T01:13:52.899Z,18.95
2023-01-26T01:16:20.874Z,15.90
2023-01-26T01:18:48.800Z,19.27
2023-01-26T01:21:18.116Z,21.30
2023-01-26T01:23:47.581Z,21.92
2023-01-26T01:26:16.596Z,21.67
2023-01-26T01:28:45.090Z,23.27
2023-01-26T01:31:15.449Z,21.52
2023-01-26T01:33:43.616Z,24.00
2023-01-26T01:36:14.214Z,21.40
2023-01-26T01:38:42.906Z,21.35
2023-01-26T01:41:12.554Z,19.58
2023-01-26T01:43:40.433Z,23.77
2023-01-26T01:46:12.586Z,19.65
2023-01-26T01:48:49.923Z,17.92
2023-01-26T01:51:22.758Z,20.35
2023-01-26T01:53:53.168Z,23.02
2023-01-26T01:56:25.352Z,24.23
2023-01-26T01:58:56.525Z,23.88
2023-01-26T02:01:25.269Z,15.68
2023-01-26T02:03:57.684Z,18.08
2023-01-26T02:06:30.919Z,20.70
2023-01-26T02:09:01.041Z,20.10
2023-01-26T02:11:34.430Z,19.30
2023-01-26T02:14:05.884Z,20.10
2023-01-26T02:16:33.887Z,16.58
2023-01-26T02:19:02.021Z,16.55
2023-01-26T02:21:31.335Z,23.50
2023-01-26T02:24:10.124Z,12.30
2023-01-26T02:26:39.741Z,19.42
2023-01-26T02:29:11.178Z,15.75
2023-01-26T02:31:43.537Z,15.30
2023-01-26T02:34:12.129Z,11.05
2023-01-26T02:36:40.137Z,15.63
2023-01-26T02:39:23.167Z,13.00
2023-01-26T02:42:11.721Z,15.02
2023-01-26T02:44:42.528Z,18.05
2023-01-26T02:47:14.316Z,18.25
2023-01-26T02:49:47.842Z,24.95
2023-01-26T02:52:19.245Z,20.27
2023-01-26T02:55:08.525Z,18.67
2023-01-26T02:57:37.969Z,16.85
2023-01-26T03:00:08.703Z,18.98
2023-01-26T03:02:36.867Z,20.40
2023-01-26T03:05:05.598Z,20.05
2023-01-26T03:07:33.686Z,17.45
2023-01-26T03:10:01.651Z,21.35
2023-01-26T03:12:30.284Z,16.90
2023-01-26T03:15:17.333Z,21.80
2023-01-26T03:17:45.310Z,21.77
2023-01-26T03:20:30.795Z,18.50
2023-01-26T03:23:16.495Z,12.32
2023-01-26T03:26:02.543Z,16.35
2023-01-26T03:28:33.789Z,20.30
2023-01-26T03:31:08.206Z,22.55
2023-01-26T03:33:36.300Z,26.05
2023-01-26T03:36:04.667Z,20.80
2023-01-26T03:38:32.929Z,20.77
2023-01-26T03:41:18.269Z,26.25
2023-01-26T03:44:03.659Z,21.90
2023-01-26T03:46:50.608Z,19.27
2023-01-26T03:49:36.235Z,14.10
2023-01-26T03:52:23.349Z,13.38
2023-01-26T03:55:09.546Z,11.80
2023-01-26T03:57:37.399Z,22.17
2023-01-26T04:00:06.796Z,16.83
2023-01-26T04:02:59.397Z,20.38
2023-01-26T04:05:45.300Z,17.50
2023-01-26T04:08:23.523Z,18.08
2023-01-26T04:11:02.645Z,11.80
2023-01-26T04:13:48.486Z,16.15
2023-01-26T04:16:54.012Z,16.55
2023-01-26T04:19:41.026Z,15.90
2023-01-26T04:22:08.975Z,16.27
2023-01-26T04:24:39.210Z,16.58
2023-01-26T04:27:07.352Z,19.52
2023-01-26T04:29:38.860Z,19.52
2023-01-26T04:32:07.246Z,21.77
2023-01-26T04:34:37.202Z,17.20
2023-01-26T04:37:12.369Z,13.45
2023-01-26T04:39:47.064Z,19.33
2023-01-26T04:42:15.242Z,15.80
2023-01-26T04:44:43.101Z,16.42
2023-01-26T04:47:11.278Z,14.75
2023-01-26T04:49:40.989Z,13.23
2023-01-26T04:52:09.060Z,18.33
2023-01-26T04:54:37.471Z,47.97
2023-01-26T04:57:05.601Z,39.15
2023-01-26T04:59:35.008Z,64.05
2023-01-26T05:02:03.948Z,57.30
2023-01-26T05:04:33.035Z,49.40
2023-01-26T05:07:02.440Z,56.60
2023-01-26T05:09:30.535Z,51.08
2023-01-26T05:12:38.344Z,32.28
2023-01-26T05:15:12.552Z,55.25
2023-01-26T05:17:54.621Z,50.00
2023-01-26T05:20:37.773Z,61.13
2023-01-26T05:23:27.555Z,50.75
2023-01-26T05:26:23.688Z,61.28
2023-01-26T05:29:04.500Z,56.67
2023-01-26T05:31:33.047Z,49.95
2023-01-26T05:34:00.992Z,49.72
2023-01-26T05:36:29.081Z,49.85
2023-01-26T05:39:00.142Z,52.95
2023-01-26T05:41:28.775Z,54.65
2023-01-26T05:44:10.507Z,79.10
2023-01-26T05:46:44.595Z,63.13
2023-01-26T05:49:12.627Z,54.25
2023-01-26T05:51:40.550Z,70.97
2023-01-26T05:54:10.143Z,45.10
2023-01-26T05:56:38.080Z,54.13
2023-01-26T05:59:07.297Z,70.70
2023-01-26T06:01:35.586Z,65.13
2023-01-26T06:04:07.199Z,47.65
2023-01-26T06:06:40.469Z,63.50
2023-01-26T06:09:26.424Z,86.75
2023-01-26T06:12:18.262Z,70.50
2023-01-26T06:14:58.273Z,65.95
2023-01-26T06:17:34.951Z,67.38
2023-01-26T06:20:06.476Z,77.93
2023-01-26T06:22:35.442Z,74.57
2023-01-26T06:25:05.166Z,71.07
2023-01-26T06:27:34.127Z,64.75
2023-01-26T06:30:06.149Z,60.65
2023-01-26T06:32:34.873Z,54.05
2023-01-26T06:35:03.242Z,66.53
2023-01-26T06:37:31.292Z,56.85
2023-01-26T06:39:59.295Z,62.72
2023-01-26T06:42:28.580Z,66.32
2023-01-26T06:44:58.767Z,45.33
2023-01-26T06:47:26.857Z,57.70
2023-01-26T06:49:55.198Z,48.17
2023-01-26T06:52:28.729Z,52.40
2023-01-26T06:55:02.422Z,58.03
2023-01-26T06:57:50.367Z,48.95
2023-01-26T07:00:36.515Z,66.72
2023-01-26T07:03:24.372Z,53.45
2023-01-26T07:05:52.258Z,56.53
2023-01-26T07:08:20.317Z,47.38
2023-01-26T07:10:48.206Z,53.30
2023-01-26T07:13:17.494Z,52.42
2023-01-26T07:15:45.382Z,51.60
2023-01-26T07:18:13.233Z,53.45
2023-01-26T07:20:41.201Z,62.60
2023-01-26T07:23:09.063Z,50.42
2023-01-26T07:25:36.981Z,64.65
2023-01-26T07:28:05.161Z,48.15
2023-01-26T07:30:34.531Z,59.78
2023-01-26T07:33:02.414Z,46.00
2023-01-26T07:35:30.611Z,59.05
2023-01-26T07:37:59.057Z,40.30
2023-01-26T07:40:27.064Z,53.40
2023-01-26T07:42:56.608Z,70.68
2023-01-26T07:45:49.434Z,51.42
2023-01-26T07:48:17.352Z,52.10
2023-01-26T07:50:47.252Z,72.10
2023-01-26T07:53:16.758Z,53.08
2023-01-26T07:55:44.743Z,55.00
2023-01-26T07:58:12.973Z,47.17
2023-01-26T08:00:41.010Z,69.88
2023-01-26T08:03:10.298Z,49.88
2023-01-26T08:05:38.592Z,55.05
2023-01-26T08:08:07.171Z,71.65
2023-01-26T08:10:35.056Z,55.17
2023-01-26T08:13:03.341Z,62.33
2023-01-26T08:15:31.495Z,61.70
2023-01-26T08:18:00.871Z,52.10
2023-01-26T08:20:30.450Z,45.00
2023-01-26T08:23:00.410Z,57.58
2023-01-26T08:25:28.387Z,55.50
2023-01-26T08:27:57.062Z,68.70
2023-01-26T08:30:25.013Z,59.42
2023-01-26T08:32:53.375Z,55.75
2023-01-26T08:35:21.313Z,60.08
2023-01-26T08:37:50.589Z,49.33
2023-01-26T08:40:18.674Z,59.40
2023-01-26T08:42:46.577Z,72.55
2023-01-26T08:45:14.491Z,52.03
2023-01-26T08:47:42.449Z,58.58
2023-01-26T08:50:11.833Z,62.53
2023-01-26T08:52:39.898Z,60.70
2023-01-26T08:55:10.005Z,58.58
2023-01-26T08:57:38.063Z,58.85
2023-01-26T09:00:07.233Z,50.97
2023-01-26T09:02:35.256Z,62.15
2023-01-26T09:05:03.581Z,53.28
2023-01-26T09:07:31.432Z,55.67
2023-01-26T09:09:59.354Z,53.35
2023-01-26T09:12:29.072Z,46.97
2023-01-26T09:14:57.013Z,43.08
2023-01-26T09:17:24.928Z,44.13
2023-01-26T09:19:52.847Z,45.90
2023-01-26T09:22:20.730Z,61.42
2023-01-26T09:24:48.631Z,55.33
2023-01-26T09:27:16.518Z,46.55
2023-01-26T09:29:45.860Z,43.00
2023-01-26T09:32:13.751Z,52.72
2023-01-26T09:34:43.679Z,57.22
2023-01-26T09:37:12.806Z,46.28
2023-01-26T09:39:40.808Z,39.83
2023-01-26T09:42:38.842Z,44.55
2023-01-26T09:45:28.268Z,55.92
2023-01-26T09:48:10.098Z,47.95
2023-01-26T09:50:43.807Z,46.15
2023-01-26T09:53:18.719Z,42.00
2023-01-26T09:55:47.371Z,44.28
2023-01-26T09:58:19.703Z,48.47
2023-01-26T10:00:54.063Z,47.67
2023-01-26T10:03:27.235Z,51.80
2023-01-26T10:06:01.901Z,41.60
2023-01-26T10:09:06.206Z,51.42
2023-01-26T10:11:39.936Z,53.90
2023-01-26T10:14:15.954Z,47.95
2023-01-26T10:16:48.535Z,43.42
2023-01-26T10:19:22.443Z,56.58
2023-01-26T10:21:54.020Z,38.33
2023-01-26T10:24:24.487Z,39.65
2023-01-26T10:26:57.347Z,45.67
2023-01-26T10:29:25.926Z,38.63
2023-01-26T10:31:56.123Z,33.45
2023-01-26T10:34:26.863Z,41.42
2023-01-26T10:37:01.610Z,44.00
2023-01-26T10:39:29.643Z,28.23
2023-01-26T10:41:59.286Z,49.65
2023-01-26T10:44:33.695Z,39.20
2023-01-26T10:47:14.872Z,45.67
2023-01-26T10:49:43.410Z,39.90
2023-01-26T10:52:18.496Z,33.08
2023-01-26T10:54:47.377Z,34.53
2023-01-26T10:57:19.488Z,37.25
2023-01-26T10:59:53.269Z,29.88
2023-01-26T11:02:27.071Z,29.00
2023-01-26T11:05:22.983Z,31.33
2023-01-26T11:07:54.234Z,31.75
2023-01-26T11:10:29.232Z,50.45
2023-01-26T11:13:16.523Z,24.35
2023-01-26T11:15:47.672Z,25.02
2023-01-26T11:18:34.386Z,28.83
2023-01-26T11:21:07.262Z,25.17
2023-01-26T11:23:45.388Z,27.58
2023-01-26T11:26:42.588Z,27.42
2023-01-26T11:29:37.916Z,28.90
2023-01-26T11:32:14.642Z,29.75
2023-01-26T11:34:55.132Z,24.27
2023-01-26T11:37:40.704Z,30.17
2023-01-26T11:40:23.665Z,21.35
2023-01-26T11:43:20.745Z,30.58
2023-01-26T11:46:11.212Z,29.38
2023-01-26T11:48:48.671Z,28.50
2023-01-26T11:51:25.080Z,24.52
2023-01-26T11:54:09.326Z,29.67
2023-01-26T11:56:45.254Z,32.17
2023-01-26T11:59:17.400Z,23.48
2023-01-26T12:01:49.736Z,19.90
2023-01-26T12:04:20.792Z,28.08
2023-01-26T12:06:55.425Z,33.50
2023-01-26T12:09:33.200Z,23.58
2023-01-26T12:12:06.096Z,24.40
2023-01-26T12:14:41.988Z,30.48
2023-01-26T12:17:24.802Z,25.73
2023-01-26T12:20:04.343Z,31.20
2023-01-26T12:22:36.199Z,27.42
2023-01-26T12:25:20.557Z,19.33
2023-01-26T12:27:54.352Z,26.45
2023-01-26T12:30:35.475Z,22.48
2023-01-26T12:33:03.877Z,16.45
2023-01-26T12:35:58.202Z,18.58
2023-01-26T12:38:41.575Z,31.85
2023-01-26T12:41:15.190Z,23.92
2023-01-26T12:43:53.745Z,19.95
2023-01-26T12:46:23.432Z,21.83
2023-01-26T12:48:56.538Z,26.13
2023-01-26T12:51:30.695Z,31.65
2023-01-26T12:54:03.975Z,20.90
2023-01-26T12:56:36.045Z,29.95
2023-01-26T12:59:10.297Z,27.48
2023-01-26T13:01:41.665Z,30.98
2023-01-26T13:04:11.754Z,22.00
2023-01-26T13:06:39.830Z,36.70
2023-01-26T13:09:23.339Z,21.88
2023-01-26T13:11:54.144Z,23.88
2023-01-26T13:14:27.651Z,29.33
2023-01-26T13:16:56.535Z,24.13
2023-01-26T13:19:37.441Z,26.25
2023-01-26T13:22:25.496Z,30.60
2023-01-26T13:24:59.316Z,29.60
2023-01-26T13:27:41.687Z,24.33
2023-01-26T13:30:35.674Z,36.63
2023-01-26T13:33:11.626Z,33.85
2023-01-26T13:35:40.500Z,25.88
2023-01-26T13:38:16.557Z,25.83
2023-01-26T13:40:49.654Z,27.35
2023-01-26T13:43:27.265Z,27.85
2023-01-26T13:46:03.006Z,33.90
2023-01-26T13:48:41.895Z,35.25
2023-01-26T13:51:14.139Z,25.10
2023-01-26T13:53:45.115Z,30.67
2023-01-26T13:56:27.578Z,30.65
2023-01-26T13:59:03.809Z,25.08
2023-01-26T14:01:32.024Z,37.22
2023-01-26T14:04:05.141Z,24.52
2023-01-26T14:06:34.021Z,32.22
2023-01-26T14:09:01.932Z,27.40
2023-01-26T14:11:34.257Z,36.35
2023-01-26T14:14:03.656Z,26.20
2023-01-26T14:16:34.518Z,28.02
2023-01-26T14:19:16.222Z,18.25
2023-01-26T14:21:50.815Z,20.60
2023-01-26T14:24:20.907Z,33.35
2023-01-26T14:26:50.296Z,27.45
2023-01-26T14:29:22.204Z,29.48
2023-01-26T14:31:51.815Z,24.60
2023-01-26T14:34:23.036Z,23.17
2023-01-26T14:37:06.460Z,38.50
2023-01-26T14:39:34.358Z,36.40
2023-01-26T14:42:04.650Z,31.67
2023-01-26T14:44:32.962Z,29.58
2023-01-26T14:47:05.446Z,26.15
2023-01-26T14:49:43.733Z,24.38
2023-01-26T14:52:25.138Z,33.17
2023-01-26T14:54:54.452Z,33.15
2023-01-26T14:57:26.734Z,25.95
2023-01-26T14:59:57.944Z,28.75
2023-01-26T15:02:27.764Z,37.47
2023-01-26T15:05:01.111Z,33.05
2023-01-26T15:07:38.885Z,33.47
2023-01-26T15:10:26.513Z,33.67
2023-01-26T15:13:01.487Z,33.97
2023-01-26T15:15:31.646Z,25.65
2023-01-26T15:18:05.430Z,21.38
2023-01-26T15:20:45.064Z,25.90
2023-01-26T15:23:23.810Z,27.42
2023-01-26T15:25:52.466Z,27.77
2023-01-26T15:28:25.904Z,27.45
2023-01-26T15:30:56.582Z,34.70
2023-01-26T15:33:45.740Z,38.20
2023-01-26T15:36:32.774Z,25.73
2023-01-26T15:39:03.631Z,29.02
2023-01-26T15:41:31.898Z,23.20
2023-01-26T15:44:01.699Z,22.65
2023-01-26T15:46:29.897Z,28.50
2023-01-26T15:48:58.113Z,23.52
2023-01-26T15:51:26.111Z,29.55
2023-01-26T15:53:54.281Z,22.38
2023-01-26T15:56:22.359Z,30.42
2023-01-26T15:58:50.522Z,30.60
2023-01-26T16:01:22.817Z,22.80
2023-01-26T16:03:51.723Z,27.85
2023-01-26T16:06:24.082Z,27.70
2023-01-26T16:08:52.906Z,18.70
2023-01-26T16:11:22.185Z,22.23
2023-01-26T16:14:02.548Z,18.83
2023-01-26T16:16:33.147Z,15.32
2023-01-26T16:19:01.325Z,40.15
2023-01-26T16:21:33.221Z,16.77
2023-01-26T16:24:01.515Z,24.63
2023-01-26T16:26:31.149Z,25.90
2023-01-26T16:28:59.437Z,17.92
2023-01-26T16:31:30.147Z,23.55
2023-01-26T16:34:00.996Z,33.08
2023-01-26T16:36:29.156Z,25.42
2023-01-26T16:38:57.123Z,30.42
2023-01-26T16:41:27.233Z,12.20
2023-01-26T16:43:56.747Z,34.15
2023-01-26T16:46:25.258Z,27.63
2023-01-26T16:48:53.414Z,22.05
2023-01-26T16:51:26.260Z,26.40
2023-01-26T16:53:55.425Z,22.38
2023-01-26T16:56:24.380Z,48.42
2023-01-26T16:58:52.679Z,21.73
2023-01-26T17:01:23.895Z,19.90
2023-01-26T17:03:52.505Z,18.25
2023-01-26T17:06:22.447Z,19.42
2023-01-26T17:08:51.092Z,18.17
2023-01-26T17:11:20.897Z,20.65
2023-01-26T17:13:49.473Z,40.35
2023-01-26T17:16:19.404Z,31.30
2023-01-26T17:18:48.615Z,17.77
2023-01-26T17:21:19.051Z,19.27
2023-01-26T17:23:50.528Z,20.20
2023-01-26T17:26:19.767Z,28.13
2023-01-26T17:28:49.358Z,18.40
2023-01-26T17:31:19.466Z,19.77
2023-01-26T17:33:49.086Z,24.67
2023-01-26T17:36:18.997Z,30.35
2023-01-26T17:38:47.766Z,18.52
2023-01-26T17:41:17.390Z,22.65
2023-01-26T17:53:09.582Z,37.35
2023-01-26T17:55:37.428Z,32.63
2023-01-26T17:58:10.580Z,15.90
2023-01-26T18:00:38.643Z,18.20
2023-01-26T18:03:07.123Z,30.25
2023-01-26T18:05:35.067Z,18.70
2023-01-26T18:08:03.035Z,31.67
2023-01-26T18:10:31.189Z,38.72
2023-01-26T18:12:59.307Z,33.95
2023-01-26T18:15:28.574Z,14.60
2023-01-26T18:17:56.502Z,22.42
2023-01-26T18:20:24.506Z,25.65
2023-01-26T18:22:54.033Z,21.98
2023-01-26T18:25:22.015Z,21.95
2023-01-26T18:27:49.978Z,18.92
2023-01-26T18:30:20.031Z,19.27
2023-01-26T18:32:49.321Z,17.85
2023-01-26T18:35:17.280Z,27.13
2023-01-26T18:37:45.164Z,16.95
2023-01-26T18:40:15.269Z,16.30
2023-01-26T18:42:43.225Z,15.20
2023-01-26T18:45:12.203Z,18.63
2023-01-26T18:47:40.354Z,30.63
2023-01-26T18:50:11.710Z,18.25
2023-01-26T18:52:39.686Z,16.08
2023-01-26T18:55:09.162Z,28.50
2023-01-26T18:57:37.244Z,17.15
2023-01-26T19:00:06.288Z,23.80
2023-01-26T19:02:38.738Z,21.38
2023-01-26T19:05:09.454Z,22.10
2023-01-26T19:07:37.393Z,23.85
2023-01-26T19:10:06.091Z,19.50
2023-01-26T19:12:34.004Z,14.70
2023-01-26T19:15:02.023Z,23.13
2023-01-26T19:17:30.031Z,21.05
2023-01-26T19:19:57.955Z,21.80
2023-01-26T19:22:27.272Z,26.23
2023-01-26T19:24:55.230Z,25.92
2023-01-26T19:27:26.698Z,18.90
2023-01-26T19:29:54.615Z,24.02
2023-01-26T19:32:22.480Z,23.33
2023-01-26T19:34:50.439Z,31.73
2023-01-26T19:37:18.303Z,23.83
2023-01-26T19:39:47.815Z,30.40
2023-01-26T19:42:15.708Z,20.38
2023-01-26T19:44:43.617Z,30.60
2023-01-26T19:47:11.568Z,29.92
2023-01-26T19:49:39.597Z,19.25
2023-01-26T19:52:07.582Z,19.55
2023-01-26T19:54:35.505Z,29.92
2023-01-26T19:57:07.226Z,24.77
2023-01-26T19:59:35.199Z,18.27
2023-01-26T20:02:03.193Z,17.98
2023-01-26T20:04:31.178Z,22.85
2023-01-26T20:07:01.904Z,18.70
2023-01-26T20:09:33.365Z,21.00
2023-01-26T20:12:01.301Z,17.40
2023-01-26T20:14:30.763Z,22.83
2023-01-26T20:16:58.893Z,18.85
2023-01-26T20:19:27.859Z,26.75
2023-01-26T20:21:55.801Z,34.35
2023-01-26T20:24:23.711Z,29.30
2023-01-26T20:26:51.817Z,18.17
2023-01-26T20:29:20.919Z,23.38
2023-01-26T20:31:51.130Z,18.65
2023-01-26T20:34:21.098Z,31.35
2023-01-26T20:36:49.570Z,18.05
2023-01-26T20:39:25.057Z,22.50
2023-01-26T20:41:53.562Z,18.42
2023-01-26T20:44:21.631Z,21.38
2023-01-26T20:46:50.925Z,18.40
2023-01-26T20:49:22.110Z,25.35
2023-01-26T20:51:50.482Z,21.05
2023-01-26T20:54:19.525Z,30.02
2023-01-26T20:56:48.973Z,18.02
2023-01-26T20:59:16.850Z,29.63
2023-01-26T21:01:44.788Z,28.70
2023-01-26T21:04:14.051Z,15.88
2023-01-26T21:06:41.954Z,24.90
2023-01-26T21:09:12.663Z,16.15
2023-01-26T21:11:40.962Z,24.48
2023-01-26T21:14:12.167Z,20.27
2023-01-26T21:16:40.239Z,16.38
2023-01-26T21:19:08.311Z,18.05
2023-01-26T21:21:37.576Z,23.42
2023-01-26T21:24:05.972Z,23.58
2023-01-26T21:26:34.684Z,21.80
2023-01-26T21:29:02.943Z,24.33
2023-01-26T21:31:32.520Z,20.33
2023-01-26T21:34:01.360Z,34.00
2023-01-26T21:36:31.663Z,18.77
2023-01-26T21:39:02.147Z,25.73
2023-01-26T21:41:49.426Z,19.90
2023-01-26T21:44:19.400Z,25.60
2023-01-26T21:46:48.848Z,21.33
2023-01-26T21:49:17.701Z,28.77
2023-01-26T21:52:03.010Z,25.95
2023-01-26T21:54:32.738Z,25.17
2023-01-26T21:57:01.565Z,19.50
2023-01-26T21:59:30.156Z,14.60
2023-01-26T22:01:59.049Z,17.48
2023-01-26T22:04:28.973Z,22.95
2023-01-26T22:06:57.771Z,19.38
2023-01-26T22:09:26.440Z,18.80
2023-01-26T22:11:55.647Z,12.60
2023-01-26T22:14:25.903Z,15.50
2023-01-26T22:16:54.174Z,16.55
2023-01-26T22:19:22.026Z,15.80
2023-01-26T22:21:50.268Z,20.92
2023-01-26T22:24:18.848Z,15.70
2023-01-26T22:26:47.533Z,23.50
2023-01-26T22:29:17.117Z,23.83
2023-01-26T22:31:45.564Z,15.73
2023-01-26T22:34:13.598Z,17.30
2023-01-26T22:36:41.511Z,20.80
2023-01-26T22:39:09.910Z,27.50
2023-01-26T22:41:38.004Z,28.83
2023-01-26T22:44:06.087Z,23.85
2023-01-26T22:46:36.746Z,24.88
2023-01-26T22:49:05.721Z,19.13
2023-01-26T22:51:36.972Z,22.98
2023-01-26T22:54:05.537Z,21.80
2023-01-26T22:56:33.488Z,17.73
2023-01-26T22:59:01.798Z,13.38
2023-01-26T23:01:31.201Z,22.35
2023-01-26T23:04:01.449Z,22.77
2023-01-26T23:06:29.695Z,18.45
2023-01-26T23:08:58.268Z,22.58
2023-01-26T23:11:28.190Z,24.23
2023-01-26T23:13:57.722Z,17.38
2023-01-26T23:16:26.496Z,22.65
2023-01-26T23:18:56.100Z,19.25
2023-01-26T23:21:26.260Z,20.65
2023-01-26T23:23:54.399Z,24.10
2023-01-26T23:26:22.455Z,22.77
2023-01-26T23:28:50.416Z,17.55
2023-01-26T23:31:19.448Z,27.25
2023-01-26T23:33:47.789Z,22.27
2023-01-26T23:36:16.250Z,29.02
2023-01-26T23:38:45.728Z,29.30
2023-01-26T23:41:14.273Z,27.17
2023-01-26T23:43:42.656Z,18.58
2023-01-26T23:46:11.860Z,22.15
2023-01-26T23:48:40.398Z,19.02
2023-01-26T23:51:10.723Z,16.90
2023-01-26T23:53:39.347Z,22.55
2023-01-26T23:56:10.884Z,21.48
2023-01-26T23:58:38.830Z,16.25
